Time;durP1;ratioP1;P1;durP2;ratioP2;P2;SDS_P1;SDS_P2;PMS_P1;PMS_P2;Temp;Humidity;BMP_temperature;BMP_pressure;BME280_temperature;BME280_humidity;BME280_pressure;Samples;Min_cycle;Max_cycle;Signal;HPM_P1;HPM_P2
2022/04/09 00:00:07;;;;;;;1.20;0.88;;;5.30;99.90;;;;;;5033857;28;20095;-58
2022/04/09 00:02:34;;;;;;;0.77;0.63;;;5.30;99.90;;;;;;5026694;28;20061;-55
2022/04/09 00:05:01;;;;;;;0.93;0.63;;;5.30;99.90;;;;;;5033703;28;20123;-57
2022/04/09 00:07:28;;;;;;;1.10;0.82;;;5.40;99.90;;;;;;5035070;28;20458;-57
2022/04/09 00:09:55;;;;;;;0.60;0.60;;;5.40;99.90;;;;;;5033537;28;20076;-57
2022/04/09 00:12:21;;;;;;;1.02;0.93;;;5.40;99.90;;;;;;5012141;28;20089;-57
2022/04/09 00:14:48;;;;;;;1.75;1.10;;;5.40;99.90;;;;;;5016798;28;20140;-56
2022/04/09 00:17:15;;;;;;;1.02;0.90;;;5.30;99.90;;;;;;5019403;28;20173;-57
2022/04/09 00:19:41;;;;;;;0.85;0.70;;;5.40;99.90;;;;;;5001320;28;20676;-57
2022/04/09 00:22:09;;;;;;;0.80;0.70;;;5.30;99.90;;;;;;5008306;28;20049;-58
2022/04/09 00:24:36;;;;;;;1.30;0.80;;;5.40;99.90;;;;;;5009504;28;20180;-58
2022/04/09 00:27:03;;;;;;;1.02;0.90;;;5.40;99.90;;;;;;5010739;28;20561;-57
2022/04/09 00:29:30;;;;;;;1.00;0.90;;;5.30;99.90;;;;;;5020761;28;20137;-58
2022/04/09 00:31:57;;;;;;;0.98;0.70;;;5.30;99.90;;;;;;5009113;28;20093;-57
2022/04/09 00:34:24;;;;;;;1.40;0.90;;;5.40;99.90;;;;;;5012293;28;20444;-55
2022/04/09 00:36:50;;;;;;;1.13;0.75;;;5.50;99.90;;;;;;5003598;28;20080;-55
2022/04/09 00:39:17;;;;;;;0.93;0.75;;;5.50;99.90;;;;;;5004035;28;20141;-56
2022/04/09 00:41:49;;;;;;;1.20;0.90;;;5.50;99.90;;;;;;5014731;28;20042;-57
2022/04/09 00:44:17;;;;;;;1.10;0.80;;;5.50;99.90;;;;;;5012169;28;20428;-55
2022/04/09 00:46:44;;;;;;;1.73;0.90;;;5.50;99.90;;;;;;5026885;28;20437;-57
2022/04/09 00:49:12;;;;;;;1.20;0.85;;;5.50;99.90;;;;;;5009503;28;20081;-56
2022/04/09 00:51:43;;;;;;;2.28;1.42;;;5.50;99.90;;;;;;5017177;28;20119;-57
2022/04/09 00:54:11;;;;;;;0.80;0.73;;;5.50;99.90;;;;;;5009152;28;20073;-56
2022/04/09 00:56:38;;;;;;;2.90;0.90;;;5.50;99.90;;;;;;5028065;28;20128;-57
2022/04/09 00:59:12;;;;;;;0.98;0.88;;;5.50;99.90;;;;;;5023918;28;20148;-58
2022/04/09 01:01:39;;;;;;;1.48;0.82;;;5.50;99.90;;;;;;5016631;28;20088;-58
2022/04/09 01:04:07;;;;;;;0.65;0.65;;;5.50;99.90;;;;;;5022565;28;20077;-57
2022/04/09 01:06:35;;;;;;;1.08;0.93;;;5.50;99.90;;;;;;5024590;28;20136;-54
2022/04/09 01:09:02;;;;;;;1.35;0.82;;;5.40;99.90;;;;;;5021686;28;20512;-57
2022/04/09 01:11:29;;;;;;;1.10;1.00;;;5.40;99.90;;;;;;5023495;28;20152;-57
2022/04/09 01:13:56;;;;;;;0.95;0.88;;;5.40;99.90;;;;;;5011034;28;20121;-54
2022/04/09 01:16:24;;;;;;;1.45;1.02;;;5.40;99.90;;;;;;5008192;28;20136;-54
2022/04/09 01:18:51;;;;;;;1.02;0.90;;;5.40;99.90;;;;;;5011568;28;20041;-56
2022/04/09 01:21:17;;;;;;;1.42;1.13;;;5.40;99.90;;;;;;5015835;28;20137;-57
2022/04/09 01:23:44;;;;;;;1.17;0.90;;;5.40;99.90;;;;;;5010292;28;20096;-58
2022/04/09 01:26:11;;;;;;;1.23;1.00;;;5.40;99.90;;;;;;5007904;28;20150;-55
2022/04/09 01:28:38;;;;;;;3.30;1.27;;;5.40;99.90;;;;;;5005851;28;20100;-57
2022/04/09 01:31:04;;;;;;;1.15;0.95;;;5.40;99.90;;;;;;5019516;28;20136;-54
2022/04/09 01:33:31;;;;;;;1.50;1.17;;;5.40;99.90;;;;;;5018282;28;20137;-57
2022/04/09 01:35:58;;;;;;;1.10;1.00;;;5.30;99.90;;;;;;5025981;28;20061;-54
2022/04/09 01:38:24;;;;;;;1.30;1.02;;;5.30;99.90;;;;;;5026007;28;20225;-58
2022/04/09 01:40:53;;;;;;;1.10;0.98;;;5.30;99.90;;;;;;5027389;28;20512;-57
2022/04/09 01:43:21;;;;;;;1.60;1.30;;;5.20;99.90;;;;;;5026641;28;20045;-56
2022/04/09 01:45:48;;;;;;;1.20;1.10;;;5.20;99.90;;;;;;5025807;28;20487;-53
2022/04/09 01:48:14;;;;;;;3.00;1.45;;;5.10;99.90;;;;;;5006896;28;20466;-57
2022/04/09 01:50:41;;;;;;;1.42;1.10;;;5.10;99.90;;;;;;5019124;28;20137;-54
2022/04/09 01:53:08;;;;;;;1.83;1.10;;;5.00;99.90;;;;;;5018890;28;20049;-57
2022/04/09 01:55:35;;;;;;;1.65;1.52;;;4.90;99.90;;;;;;5007191;28;20137;-55
2022/04/09 01:58:02;;;;;;;1.75;1.10;;;4.80;99.90;;;;;;5014686;28;20141;-55
2022/04/09 02:00:28;;;;;;;1.55;1.25;;;4.80;99.90;;;;;;5019317;28;20251;-58
2022/04/09 02:02:56;;;;;;;2.22;1.48;;;4.70;99.90;;;;;;5024931;28;20057;-57
2022/04/09 02:05:23;;;;;;;1.38;1.13;;;4.70;99.90;;;;;;5026056;28;20126;-57
2022/04/09 02:07:50;;;;;;;1.60;1.30;;;4.60;99.90;;;;;;5019774;28;20109;-57
2022/04/09 02:10:18;;;;;;;1.73;1.40;;;4.60;99.90;;;;;;5013418;28;20162;-57
2022/04/09 02:12:45;;;;;;;1.63;1.38;;;4.50;99.90;;;;;;5025034;28;20532;-57
2022/04/09 02:15:13;;;;;;;1.35;1.25;;;4.50;99.90;;;;;;5017491;28;20125;-57
2022/04/09 02:17:40;;;;;;;2.00;1.35;;;4.40;99.90;;;;;;5023278;28;20080;-57
2022/04/09 02:20:08;;;;;;;2.15;1.25;;;4.30;99.90;;;;;;5023980;28;20402;-56
2022/04/09 02:22:39;;;;;;;1.35;1.10;;;4.20;99.90;;;;;;5022754;28;20077;-58
2022/04/09 02:25:12;;;;;;;1.63;1.40;;;4.20;99.90;;;;;;5014436;28;20084;-56
2022/04/09 02:27:39;;;;;;;1.50;1.27;;;4.20;99.90;;;;;;5019098;28;20681;-57
2022/04/09 02:30:07;;;;;;;2.08;1.60;;;4.20;99.90;;;;;;5005824;28;20077;-58
2022/04/09 02:32:51;;;;;;;1.52;1.30;;;4.10;99.90;;;;;;5006447;28;20055;-57
2022/04/09 02:35:18;;;;;;;1.73;1.52;;;4.10;99.90;;;;;;5006740;28;20108;-58
2022/04/09 02:37:45;;;;;;;2.42;1.42;;;4.10;99.90;;;;;;4964996;28;1181391;-56
2022/04/09 02:40:12;;;;;;;1.77;1.48;;;4.10;99.90;;;;;;5006617;28;20081;-54
2022/04/09 02:42:39;;;;;;;2.22;1.92;;;4.10;99.90;;;;;;5010865;28;20409;-56
2022/04/09 02:45:06;;;;;;;1.88;1.40;;;4.10;99.90;;;;;;5023923;28;20128;-57
2022/04/09 02:47:33;;;;;;;2.30;1.80;;;4.10;99.90;;;;;;5004731;28;20077;-57
2022/04/09 02:50:00;;;;;;;2.00;1.58;;;4.00;99.90;;;;;;5005994;28;20085;-57
2022/04/09 02:52:31;;;;;;;2.50;2.15;;;4.00;99.90;;;;;;5005323;28;20108;-57
2022/04/09 02:54:58;;;;;;;2.20;1.92;;;4.00;99.90;;;;;;5015501;28;20220;-56
2022/04/09 02:57:25;;;;;;;2.50;1.58;;;3.90;99.90;;;;;;5025634;28;20049;-56
2022/04/09 02:59:52;;;;;;;2.05;1.80;;;3.90;99.90;;;;;;5024404;28;20165;-57
2022/04/09 03:02:18;;;;;;;3.03;1.92;;;3.90;99.90;;;;;;5010837;28;20081;-55
2022/04/09 03:04:45;;;;;;;2.25;1.88;;;3.90;99.90;;;;;;5025645;28;20115;-55
2022/04/09 03:07:12;;;;;;;2.17;1.83;;;3.80;99.90;;;;;;5025498;28;20140;-55
2022/04/09 03:09:39;;;;;;;2.35;1.83;;;3.80;99.90;;;;;;5004760;28;20390;-56
2022/04/09 03:12:06;;;;;;;3.88;2.10;;;3.70;99.90;;;;;;5013627;28;20156;-55
2022/04/09 03:14:32;;;;;;;2.33;1.95;;;3.70;99.90;;;;;;5006752;28;20213;-57
2022/04/09 03:16:59;;;;;;;2.92;2.25;;;3.70;99.90;;;;;;5022759;28;20469;-56
2022/04/09 03:19:26;;;;;;;2.47;2.00;;;3.70;99.90;;;;;;5005228;28;20138;-53
2022/04/09 03:21:53;;;;;;;2.65;2.08;;;3.60;99.90;;;;;;5006185;28;20137;-55
2022/04/09 03:24:20;;;;;;;2.55;2.15;;;3.60;99.90;;;;;;5014235;28;20064;-56
2022/04/09 03:26:46;;;;;;;2.58;2.13;;;3.60;99.90;;;;;;5017624;28;20136;-56
2022/04/09 03:29:13;;;;;;;2.30;2.00;;;3.60;99.90;;;;;;5006379;28;20132;-56
2022/04/09 03:31:40;;;;;;;2.58;2.17;;;3.50;99.90;;;;;;5024659;28;20069;-57
2022/04/09 03:34:07;;;;;;;2.88;2.25;;;3.50;99.90;;;;;;5024419;28;20493;-55
2022/04/09 03:36:34;;;;;;;2.72;2.28;;;3.50;99.90;;;;;;5022623;28;20505;-57
2022/04/09 03:39:00;;;;;;;2.83;2.40;;;3.50;99.90;;;;;;5025671;28;20160;-58
2022/04/09 03:41:27;;;;;;;2.90;2.17;;;3.50;99.90;;;;;;5024166;28;20223;-56
2022/04/09 03:43:54;;;;;;;3.28;2.70;;;3.40;99.90;;;;;;5018787;28;20103;-56
2022/04/09 03:46:24;;;;;;;2.92;2.53;;;3.40;99.90;;;;;;5025299;28;20049;-57
2022/04/09 03:48:51;;;;;;;2.97;2.53;;;3.30;99.90;;;;;;5012392;28;20053;-57
2022/04/09 03:51:17;;;;;;;2.42;2.22;;;3.30;99.90;;;;;;5016846;28;20136;-57
2022/04/09 03:53:44;;;;;;;3.05;2.33;;;3.30;99.90;;;;;;5017468;28;20168;-57
2022/04/09 03:56:11;;;;;;;5.72;2.70;;;3.30;99.90;;;;;;5012992;28;20042;-57
2022/04/09 03:58:37;;;;;;;2.30;1.98;;;3.20;99.90;;;;;;5003644;28;20536;-52
2022/04/09 04:01:04;;;;;;;3.10;2.45;;;3.20;99.90;;;;;;5014692;28;20046;-56
2022/04/09 04:03:33;;;;;;;3.00;2.40;;;3.20;99.90;;;;;;5023626;28;20065;-56
2022/04/09 04:06:01;;;;;;;2.92;2.47;;;3.20;99.90;;;;;;5024145;28;20160;-55
2022/04/09 04:08:27;;;;;;;2.67;2.35;;;3.20;99.90;;;;;;5024487;28;20136;-57
2022/04/09 04:10:54;;;;;;;3.63;2.85;;;3.10;99.90;;;;;;5023475;28;20140;-57
2022/04/09 04:13:21;;;;;;;3.00;2.70;;;3.10;99.90;;;;;;5023936;28;20136;-56
2022/04/09 04:15:48;;;;;;;3.13;2.45;;;3.10;99.90;;;;;;5022263;28;20052;-55
2022/04/09 04:18:15;;;;;;;3.42;2.97;;;3.10;99.90;;;;;;5015945;28;20688;-57
2022/04/09 04:20:41;;;;;;;3.65;2.95;;;3.10;99.90;;;;;;5016687;28;20132;-54
2022/04/09 04:23:08;;;;;;;3.20;2.90;;;3.10;99.90;;;;;;5021904;28;20136;-54
2022/04/09 04:25:35;;;;;;;3.20;2.80;;;3.10;99.90;;;;;;5019513;28;20140;-56
2022/04/09 04:28:02;;;;;;;2.63;2.42;;;3.10;99.90;;;;;;5024057;28;20073;-56
2022/04/09 04:30:28;;;;;;;3.33;2.70;;;3.00;99.90;;;;;;5015579;28;20176;-53
2022/04/09 04:32:55;;;;;;;4.95;2.75;;;3.00;99.90;;;;;;5008106;28;20133;-56
2022/04/09 04:35:22;;;;;;;2.90;2.58;;;3.10;99.90;;;;;;5023778;28;20733;-55
2022/04/09 04:37:49;;;;;;;3.70;2.67;;;3.10;99.90;;;;;;5020623;28;20506;-55
2022/04/09 04:40:16;;;;;;;2.90;2.60;;;3.10;99.90;;;;;;5016499;28;20136;-55
2022/04/09 04:42:45;;;;;;;3.38;2.35;;;3.10;99.90;;;;;;5021155;28;20152;-56
2022/04/09 04:45:11;;;;;;;3.15;2.85;;;3.00;99.90;;;;;;5000945;28;20129;-56
2022/04/09 04:47:48;;;;;;;3.35;3.05;;;3.00;99.90;;;;;;4999312;28;20140;-58
2022/04/09 04:50:16;;;;;;;2.92;2.53;;;3.00;99.90;;;;;;4996371;28;20119;-55
2022/04/09 04:52:43;;;;;;;2.85;2.58;;;3.00;99.90;;;;;;5000568;28;20131;-56
2022/04/09 04:55:10;;;;;;;3.63;2.60;;;3.00;99.90;;;;;;5013014;28;20073;-57
2022/04/09 04:57:44;;;;;;;3.65;3.10;;;2.90;99.90;;;;;;5017029;28;20053;-55
2022/04/09 05:00:12;;;;;;;3.95;2.88;;;2.90;99.90;;;;;;5012494;28;20235;-56
2022/04/09 05:02:39;;;;;;;3.78;3.38;;;2.90;99.90;;;;;;5024747;28;20072;-55
2022/04/09 05:05:06;;;;;;;3.10;2.80;;;2.90;99.90;;;;;;5023500;28;20088;-56
2022/04/09 05:07:39;;;;;;;3.65;3.22;;;2.90;99.90;;;;;;5026068;28;20128;-57
2022/04/09 05:10:07;;;;;;;;;;;2.90;99.90;;;;;;5021277;28;20045;-57
2022/04/09 05:12:34;;;;;;;3.17;2.58;;;2.90;99.90;;;;;;5016241;28;19999;-55
2022/04/09 05:15:05;;;;;;;3.30;2.90;;;2.90;99.90;;;;;;5024932;28;20080;-55
2022/04/09 05:17:32;;;;;;;3.55;3.25;;;2.90;99.90;;;;;;5007507;28;20128;-53
2022/04/09 05:19:59;;;;;;;3.30;2.80;;;2.90;99.90;;;;;;4997892;28;20049;-55
2022/04/09 05:22:27;;;;;;;4.38;3.58;;;2.90;99.90;;;;;;5005925;28;20181;-53
2022/04/09 05:24:55;;;;;;;4.20;3.60;;;2.90;99.90;;;;;;5002856;28;20100;-54
2022/04/09 05:27:21;;;;;;;4.10;3.65;;;2.90;99.90;;;;;;5002026;28;20125;-55
2022/04/09 05:29:48;;;;;;;3.85;3.42;;;2.90;99.90;;;;;;4997245;28;20046;-57
2022/04/09 05:32:15;;;;;;;3.55;3.15;;;2.80;99.90;;;;;;4996694;28;20144;-56
2022/04/09 05:34:42;;;;;;;3.78;3.20;;;2.80;99.90;;;;;;5003496;28;20064;-56
2022/04/09 05:37:09;;;;;;;4.13;3.55;;;2.80;99.90;;;;;;5013474;28;20054;-54
2022/04/09 05:39:36;;;;;;;4.55;3.40;;;2.80;99.90;;;;;;5002767;28;20136;-56
2022/04/09 05:42:03;;;;;;;3.65;3.20;;;2.80;99.90;;;;;;5012017;28;20053;-58
2022/04/09 05:44:31;;;;;;;4.13;3.65;;;2.70;99.90;;;;;;5009020;28;20080;-56
2022/04/09 05:46:59;;;;;;;4.10;3.70;;;2.70;99.90;;;;;;5014389;28;20049;-56
2022/04/09 05:49:26;;;;;;;3.83;3.35;;;2.60;99.90;;;;;;5005106;28;20157;-55
2022/04/09 05:51:53;;;;;;;4.32;3.70;;;2.60;99.90;;;;;;5001098;28;20073;-55
2022/04/09 05:54:20;;;;;;;4.28;3.70;;;2.60;99.90;;;;;;5000488;28;20133;-57
2022/04/09 05:56:47;;;;;;;4.35;3.95;;;2.60;99.90;;;;;;5016509;28;20609;-57
2022/04/09 05:59:13;;;;;;;4.40;3.70;;;2.70;99.90;;;;;;5013175;28;20049;-56
2022/04/09 06:01:46;;;;;;;3.85;3.15;;;2.70;99.90;;;;;;5017310;28;20429;-54
2022/04/09 06:04:19;;;;;;;4.10;3.35;;;2.70;99.90;;;;;;5016315;28;20049;-54
2022/04/09 06:06:47;;;;;;;3.92;3.30;;;2.70;99.90;;;;;;5017723;28;20452;-55
2022/04/09 06:09:14;;;;;;;4.10;3.33;;;2.70;99.90;;;;;;5011218;28;20104;-55
2022/04/09 06:11:42;;;;;;;4.00;3.50;;;2.70;99.90;;;;;;5012589;28;20074;-55
2022/04/09 06:14:09;;;;;;;4.15;3.40;;;2.80;99.90;;;;;;5005598;28;20087;-56
2022/04/09 06:16:38;;;;;;;4.15;3.75;;;2.80;99.90;;;;;;5009651;28;20476;-57
2022/04/09 06:19:05;;;;;;;3.63;3.08;;;2.80;99.90;;;;;;5002396;28;21073;-57
2022/04/09 06:21:33;;;;;;;5.22;4.03;;;2.90;99.90;;;;;;5012658;28;20504;-57
2022/04/09 06:24:00;;;;;;;3.83;3.42;;;2.90;99.90;;;;;;5009973;28;20096;-56
2022/04/09 06:26:27;;;;;;;4.18;3.72;;;2.90;99.90;;;;;;5005276;28;20484;-57
2022/04/09 06:28:55;;;;;;;4.32;3.90;;;2.90;99.90;;;;;;5008780;28;20192;-56
2022/04/09 06:31:21;;;;;;;4.22;3.83;;;2.90;99.90;;;;;;5013435;28;20136;-54
2022/04/09 06:33:48;;;;;;;4.30;3.90;;;3.00;99.90;;;;;;5017050;28;20508;-57
2022/04/09 06:36:15;;;;;;;4.70;4.20;;;3.00;99.90;;;;;;5005990;28;20447;-57
2022/04/09 06:38:42;;;;;;;5.03;3.80;;;3.00;99.90;;;;;;5021414;28;20140;-56
2022/04/09 06:41:09;;;;;;;4.60;3.90;;;3.00;99.90;;;;;;5007571;28;20162;-56
2022/04/09 06:43:36;;;;;;;4.43;4.03;;;3.10;99.90;;;;;;5003632;28;20119;-57
2022/04/09 06:46:02;;;;;;;4.63;3.88;;;3.10;99.90;;;;;;5008758;28;20160;-56
2022/04/09 06:48:29;;;;;;;5.65;4.45;;;3.20;99.90;;;;;;5005948;28;20112;-56
2022/04/09 06:50:57;;;;;;;4.80;4.25;;;3.30;99.90;;;;;;5008291;28;20133;-57
2022/04/09 06:53:23;;;;;;;5.82;4.95;;;3.30;99.90;;;;;;5017598;28;20338;-57
2022/04/09 06:55:50;;;;;;;5.10;4.45;;;3.40;99.90;;;;;;5015995;28;20133;-58
2022/04/09 06:58:17;;;;;;;5.45;4.80;;;3.50;99.90;;;;;;4998866;28;20085;-58
2022/04/09 07:00:44;;;;;;;5.88;5.28;;;3.60;99.90;;;;;;5007580;28;20303;-57
2022/04/09 07:03:12;;;;;;;5.53;5.03;;;3.60;99.90;;;;;;4998015;28;20490;-57
2022/04/09 07:05:40;;;;;;;4.60;4.10;;;3.70;99.90;;;;;;4999182;28;20076;-57
2022/04/09 07:08:08;;;;;;;5.75;4.63;;;3.80;99.90;;;;;;5000831;28;20057;-58
2022/04/09 07:10:38;;;;;;;6.50;4.30;;;3.80;99.90;;;;;;5021757;28;20143;-56
2022/04/09 07:13:05;;;;;;;5.57;4.90;;;3.90;99.90;;;;;;5033727;28;20085;-56
2022/04/09 07:15:34;;;;;;;5.70;4.90;;;3.90;99.90;;;;;;5029535;28;20487;-58
2022/04/09 07:18:00;;;;;;;5.20;4.55;;;4.00;99.90;;;;;;5018325;28;20393;-57
2022/04/09 07:20:29;;;;;;;6.82;5.25;;;4.00;99.90;;;;;;5016881;28;20412;-57
2022/04/09 07:22:55;;;;;;;5.20;4.70;;;4.00;99.90;;;;;;5017660;28;20077;-57
2022/04/09 07:25:22;;;;;;;5.50;4.60;;;4.10;99.90;;;;;;5018849;28;20069;-58
2022/04/09 07:27:49;;;;;;;4.93;4.25;;;4.10;99.90;;;;;;5005475;28;20078;-56
2022/04/09 07:30:18;;;;;;;5.53;4.95;;;4.10;99.90;;;;;;5022007;28;20056;-57
2022/04/09 07:32:45;;;;;;;6.03;4.35;;;4.20;99.90;;;;;;5026152;28;20136;-56
2022/04/09 07:35:12;;;;;;;5.63;4.22;;;4.30;99.90;;;;;;5012237;28;20155;-55
2022/04/09 07:37:43;;;;;;;5.40;4.80;;;4.30;99.90;;;;;;5033202;28;20369;-56
2022/04/09 07:40:10;;;;;;;6.05;4.32;;;4.40;99.90;;;;;;5026545;28;20107;-56
2022/04/09 07:42:38;;;;;;;5.32;4.72;;;4.40;99.90;;;;;;5037846;28;20471;-56
2022/04/09 07:45:05;;;;;;;5.95;4.97;;;4.50;99.90;;;;;;5014333;28;20409;-57
2022/04/09 07:47:32;;;;;;;6.70;4.30;;;4.60;99.90;;;;;;5018081;28;20170;-57
2022/04/09 07:50:00;;;;;;;5.68;4.15;;;4.60;99.90;;;;;;5011822;28;20124;-57
2022/04/09 07:52:27;;;;;;;4.75;4.35;;;4.70;99.90;;;;;;5031098;28;20257;-57
2022/04/09 07:54:57;;;;;;;5.22;4.60;;;4.70;99.90;;;;;;5011430;28;20815;-57
2022/04/09 07:57:25;;;;;;;5.30;4.40;;;4.80;99.90;;;;;;5013105;28;20084;-55
2022/04/09 07:59:53;;;;;;;6.97;4.80;;;4.90;99.90;;;;;;5016304;28;20144;-56
2022/04/09 08:02:20;;;;;;;5.53;4.93;;;5.00;99.90;;;;;;5017787;28;20156;-57
2022/04/09 08:04:47;;;;;;;5.65;4.82;;;5.00;99.90;;;;;;5015706;28;20099;-56
2022/04/09 08:07:14;;;;;;;5.80;4.60;;;5.10;99.90;;;;;;5015895;28;20160;-55
2022/04/09 08:09:41;;;;;;;6.65;5.20;;;5.10;99.90;;;;;;5011969;28;20469;-56
2022/04/09 08:12:08;;;;;;;5.53;4.55;;;5.20;99.90;;;;;;5017272;28;20122;-57
2022/04/09 08:14:35;;;;;;;5.57;4.38;;;5.20;99.90;;;;;;5001384;28;20081;-55
2022/04/09 08:17:02;;;;;;;7.75;4.88;;;5.30;99.90;;;;;;5002610;28;20133;-56
2022/04/09 08:19:29;;;;;;;4.30;3.90;;;5.30;99.90;;;;;;5013526;28;20444;-57
2022/04/09 08:21:58;;;;;;;5.20;4.57;;;5.40;99.90;;;;;;5011893;28;20045;-57
2022/04/09 08:24:25;;;;;;;7.03;4.43;;;5.40;99.90;;;;;;5006836;28;20049;-57
2022/04/09 08:26:52;;;;;;;5.15;3.53;;;5.50;99.90;;;;;;5009745;28;20452;-56
2022/04/09 08:29:20;;;;;;;5.65;4.45;;;5.60;99.90;;;;;;5011388;28;20046;-57
2022/04/09 08:31:47;;;;;;;5.53;3.63;;;5.70;99.90;;;;;;4997994;28;20449;-54
2022/04/09 08:34:15;;;;;;;4.22;3.67;;;5.80;99.90;;;;;;5006719;28;20066;-58
2022/04/09 08:36:42;;;;;;;4.40;3.53;;;5.90;99.90;;;;;;5015917;28;20054;-57
2022/04/09 08:39:09;;;;;;;4.57;3.42;;;5.90;99.90;;;;;;5002538;28;20145;-57
2022/04/09 08:41:40;;;;;;;4.13;3.45;;;6.00;99.90;;;;;;5011068;28;20129;-56
2022/04/09 08:44:08;;;;;;;5.32;3.63;;;6.10;99.90;;;;;;5014199;28;20064;-57
2022/04/09 08:46:35;;;;;;;7.55;4.15;;;6.20;99.90;;;;;;5011723;28;20107;-57
2022/04/09 08:49:03;;;;;;;7.03;3.97;;;6.30;99.90;;;;;;5004652;28;20088;-57
2022/04/09 08:51:30;;;;;;;5.03;3.75;;;6.40;99.90;;;;;;5037776;28;20124;-58
2022/04/09 08:54:04;;;;;;;4.45;2.42;;;6.50;99.90;;;;;;5008033;28;20045;-57
2022/04/09 08:56:37;;;;;;;4.95;2.83;;;6.60;99.90;;;;;;5005814;28;20484;-58
2022/04/09 08:59:04;;;;;;;2.85;2.22;;;6.60;99.90;;;;;;5017613;28;20053;-57
2022/04/09 09:01:31;;;;;;;8.38;3.30;;;6.70;99.90;;;;;;5017591;28;20250;-57
2022/04/09 09:03:58;;;;;;;4.57;2.13;;;6.70;99.90;;;;;;5016209;28;20508;-58
2022/04/09 09:06:31;;;;;;;3.10;1.92;;;6.80;99.90;;;;;;5016213;28;20363;-57
2022/04/09 09:08:59;;;;;;;3.50;2.17;;;6.90;99.90;;;;;;5019455;28;20138;-55
2022/04/09 09:11:26;;;;;;;3.42;2.10;;;7.00;99.90;;;;;;5020852;28;20168;-57
2022/04/09 09:13:58;;;;;;;3.05;2.15;;;7.10;99.90;;;;;;5011991;28;20085;-56
2022/04/09 09:16:29;;;;;;;3.28;2.03;;;7.20;99.90;;;;;;5021305;28;20064;-55
2022/04/09 09:19:03;;;;;;;3.28;1.92;;;7.20;99.90;;;;;;5019129;28;20045;-57
2022/04/09 09:21:29;;;;;;;;;;;7.30;99.90;;;;;;5020438;28;20053;-58
2022/04/09 09:24:16;;;;;;;4.15;2.05;;;7.40;99.90;;;;;;5018968;28;20027;-57
2022/04/09 09:26:46;;;;;;;3.58;1.73;;;7.40;99.90;;;;;;5018594;28;20068;-58
2022/04/09 09:29:23;;;;;;;5.82;2.10;;;7.40;99.90;;;;;;5012261;28;20093;-58
2022/04/09 09:31:51;;;;;;;5.03;2.03;;;7.50;99.90;;;;;;4992467;28;20391;-58
2022/04/09 09:34:19;;;;;;;2.60;1.58;;;7.60;99.90;;;;;;5018547;28;20058;-53
2022/04/09 09:36:46;;;;;;;4.05;2.13;;;7.70;99.90;;;;;;5013510;28;20081;-58
2022/04/09 09:39:23;;;;;;;3.95;1.42;;;7.70;99.90;;;;;;5006214;28;20343;-57
2022/04/09 09:41:54;;;;;;;5.03;2.00;;;7.80;99.90;;;;;;5001559;28;20490;-58
2022/04/09 09:44:26;;;;;;;4.60;1.50;;;7.80;99.90;;;;;;5017554;28;20071;-57
2022/04/09 09:46:54;;;;;;;4.78;1.70;;;7.90;99.90;;;;;;5015488;28;20164;-57
2022/04/09 09:49:23;;;;;;;3.90;1.40;;;7.90;99.90;;;;;;5008389;28;20077;-58
2022/04/09 09:52:09;;;;;;;2.63;1.55;;;8.10;99.90;;;;;;5002508;28;20128;-57
2022/04/09 09:54:58;;;;;;;4.47;1.60;;;8.20;99.90;;;;;;5016191;28;20568;-57
2022/04/09 09:57:26;;;;;;;4.35;1.63;;;8.40;99.90;;;;;;5034634;28;20501;-58
2022/04/09 09:59:57;;;;;;;2.30;1.35;;;8.60;99.90;;;;;;5029422;28;20095;-56
2022/04/09 10:02:29;;;;;;;4.43;1.45;;;8.70;99.90;;;;;;5027091;28;20053;-59
2022/04/09 10:04:56;;;;;;;3.33;1.20;;;8.90;99.90;;;;;;5007772;28;20046;-58
2022/04/09 10:07:24;;;;;;;3.60;0.82;;;9.10;99.90;;;;;;5009678;28;20177;-56
2022/04/09 10:09:53;;;;;;;4.25;1.40;;;9.10;99.90;;;;;;5023133;28;20513;-58
2022/04/09 10:12:21;;;;;;;3.50;1.27;;;9.10;99.90;;;;;;5031162;28;20120;-59
2022/04/09 10:14:58;;;;;;;2.90;1.25;;;9.10;99.90;;;;;;5018077;28;20112;-58
2022/04/09 10:17:26;;;;;;;1.05;0.63;;;9.20;99.90;;;;;;5019348;28;20145;-58
2022/04/09 10:19:57;;;;;;;2.05;0.88;;;9.50;99.90;;;;;;5018872;28;20132;-58
2022/04/09 10:22:28;;;;;;;1.90;0.90;;;9.80;99.90;;;;;;5020534;28;20128;-56
2022/04/09 10:24:55;;;;;;;3.10;0.93;;;9.90;99.90;;;;;;5018459;28;20558;-57
2022/04/09 10:27:44;;;;;;;2.63;1.00;;;10.10;99.90;;;;;;5001255;28;20054;-58
2022/04/09 10:30:12;;;;;;;;;;;10.20;99.90;;;;;;5008166;28;20049;-57
2022/04/09 10:32:43;;;;;;;3.88;1.00;;;10.10;99.90;;;;;;5009327;28;19921;-57
2022/04/09 10:35:30;;;;;;;4.53;1.35;;;10.00;99.90;;;;;;5004701;28;20192;-58
2022/04/09 10:38:10;;;;;;;4.85;1.17;;;9.80;99.90;;;;;;5029496;28;20402;-57
2022/04/09 10:40:44;;;;;;;4.40;1.27;;;9.60;99.90;;;;;;5002328;28;20181;-56
2022/04/09 10:43:25;;;;;;;3.25;1.10;;;9.50;99.60;;;;;;5006837;28;20128;-57
2022/04/09 10:46:09;;;;;;;3.92;1.42;;;9.60;99.90;;;;;;5011394;28;20085;-59
2022/04/09 10:48:36;;;;;;;;;;;9.80;99.90;;;;;;5011051;28;20045;-58
2022/04/09 10:51:08;;;;;;;3.80;1.20;;;9.90;99.90;;;;;;5003936;28;20024;-59
2022/04/09 10:53:35;;;;;;;2.58;1.00;;;9.90;99.90;;;;;;5006063;28;20138;-58
2022/04/09 10:56:24;;;;;;;2.58;0.85;;;10.00;99.90;;;;;;5000005;28;20050;-59
2022/04/09 10:59:16;;;;;;;1.80;0.90;;;9.90;99.50;;;;;;5005914;28;20554;-58
2022/04/09 11:01:46;;;;;;;2.97;0.90;;;9.70;99.00;;;;;;5003183;28;20549;-59
2022/04/09 11:07:05;;;;;;;2.35;0.88;;;9.80;98.00;;;;;;5019561;28;20057;-56
2022/04/09 11:09:51;;;;;;;4.28;1.00;;;9.90;96.90;;;;;;5019631;28;20492;-58
2022/04/09 11:12:28;;;;;;;1.60;0.70;;;10.00;98.40;;;;;;5018060;28;20136;-57
2022/04/09 11:15:02;;;;;;;2.10;1.00;;;10.20;98.20;;;;;;5018311;28;20077;-57
2022/04/09 11:17:37;;;;;;;1.98;0.82;;;10.50;93.70;;;;;;5012490;28;20220;-58
2022/04/09 11:20:07;;;;;;;2.42;0.70;;;10.50;93.50;;;;;;5008576;28;20045;-58
2022/04/09 11:22:47;;;;;;;1.77;0.75;;;10.60;92.80;;;;;;5006534;28;20098;-56
2022/04/09 11:25:19;;;;;;;2.83;0.90;;;10.60;92.20;;;;;;5014308;28;20069;-58
2022/04/09 11:27:46;;;;;;;1.90;0.80;;;10.80;92.80;;;;;;5017589;28;20775;-58
2022/04/09 11:30:12;;;;;;;1.67;0.90;;;10.80;88.70;;;;;;5016554;28;20741;-58
2022/04/09 11:32:39;;;;;;;4.05;1.00;;;10.70;87.40;;;;;;5023747;28;20140;-58
2022/04/09 11:35:12;;;;;;;4.20;1.15;;;10.90;90.90;;;;;;5013989;28;20144;-57
2022/04/09 11:37:43;;;;;;;;;;;11.00;91.80;;;;;;5010197;28;20638;-58
2022/04/09 11:40:11;;;;;;;1.73;0.80;;;11.30;91.00;;;;;;5019550;28;20312;-58
2022/04/09 11:42:50;;;;;;;1.35;0.90;;;11.50;90.00;;;;;;5003257;28;20129;-58
2022/04/09 11:45:27;;;;;;;2.00;0.90;;;11.80;91.10;;;;;;5014388;28;20569;-58
2022/04/09 11:48:01;;;;;;;1.88;0.90;;;11.90;89.90;;;;;;5018268;28;20404;-58
2022/04/09 11:50:31;;;;;;;1.25;0.70;;;12.20;90.00;;;;;;5012102;28;20116;-58
2022/04/09 11:53:29;;;;;;;2.05;1.15;;;12.40;90.40;;;;;;5006569;28;20084;-58
2022/04/09 11:56:00;;;;;;;1.80;0.90;;;12.60;89.40;;;;;;4999712;28;20115;-58
2022/04/09 11:58:51;;;;;;;3.38;1.00;;;12.60;89.50;;;;;;5009769;28;20729;-59
2022/04/09 12:01:18;;;;;;;2.92;1.00;;;12.70;89.50;;;;;;4998377;28;20049;-59
2022/04/09 12:03:51;;;;;;;2.20;0.70;;;12.80;87.40;;;;;;5006259;28;20139;-57
2022/04/09 12:06:17;;;;;;;;;;;12.80;85.50;;;;;;5017279;28;20052;-58
2022/04/09 12:08:45;;;;;;;2.00;0.95;;;13.10;87.90;;;;;;5017659;28;20014;-57
2022/04/09 12:11:13;;;;;;;1.88;0.70;;;12.50;85.00;;;;;;5016756;28;20060;-58
2022/04/09 12:13:42;;;;;;;3.05;0.93;;;12.20;85.30;;;;;;5017096;28;20103;-57
2022/04/09 12:16:08;;;;;;;2.92;1.00;;;12.00;85.60;;;;;;5004894;28;20430;-58
2022/04/09 12:18:36;;;;;;;2.78;0.90;;;11.90;86.20;;;;;;5014368;28;20073;-58
2022/04/09 12:21:20;;;;;;;1.67;1.10;;;12.30;85.30;;;;;;5007173;28;20076;-59
2022/04/09 12:24:06;;;;;;;2.63;1.20;;;12.70;86.00;;;;;;5010993;28;20467;-58
2022/04/09 12:26:34;;;;;;;1.98;1.23;;;13.10;82.50;;;;;;4999442;28;20146;-58
2022/04/09 12:29:16;;;;;;;1.63;0.95;;;13.40;79.00;;;;;;4998935;28;20128;-59
2022/04/09 12:31:47;;;;;;;1.38;0.90;;;13.90;81.50;;;;;;5008759;28;20131;-59
2022/04/09 12:34:14;;;;;;;1.08;0.60;;;14.40;80.20;;;;;;5012093;28;20123;-58
2022/04/09 12:37:06;;;;;;;2.35;0.77;;;14.60;78.40;;;;;;5015138;28;20132;-58
2022/04/09 12:39:33;;;;;;;1.73;0.80;;;14.60;78.30;;;;;;5011942;28;20201;-57
2022/04/09 12:42:00;;;;;;;1.90;1.20;;;14.10;77.40;;;;;;5009370;28;20775;-56
2022/04/09 12:44:28;;;;;;;0.85;0.68;;;13.60;77.40;;;;;;5022290;28;20136;-55
2022/04/09 12:46:55;;;;;;;2.08;1.20;;;13.30;80.40;;;;;;5022945;28;20400;-57
2022/04/09 12:49:35;;;;;;;2.28;0.90;;;13.60;78.40;;;;;;5011673;28;20508;-57
2022/04/09 12:52:03;;;;;;;2.40;0.75;;;14.20;76.50;;;;;;5015550;28;21419;-57
2022/04/09 12:54:31;;;;;;;1.75;1.00;;;14.60;74.80;;;;;;5013508;28;20057;-57
2022/04/09 12:57:13;;;;;;;1.63;0.82;;;15.00;73.40;;;;;;5015115;28;20512;-57
2022/04/09 12:59:40;;;;;;;1.77;1.00;;;15.30;73.20;;;;;;5012764;28;20041;-57
2022/04/09 13:02:07;;;;;;;3.17;1.08;;;15.50;71.80;;;;;;5008449;28;20088;-58
2022/04/09 13:04:34;;;;;;;1.77;0.77;;;15.60;72.20;;;;;;5011335;28;20097;-57
2022/04/09 13:07:01;;;;;;;1.08;0.60;;;15.70;72.00;;;;;;5014435;28;20152;-60
2022/04/09 13:09:27;;;;;;;1.80;0.80;;;15.40;71.40;;;;;;5023956;28;20045;-60